sensor_id;sensor_type;location;lat;lon;timestamp;P1;durP1;ratioP1;P2;durP2;ratioP2
75435;SDS011;64014;53.432;14.534;2023-06-26T00:00:07;9.25;;;5.45;;
75435;SDS011;64014;53.432;14.534;2023-06-26T00:02:34;9.40;;;5.22;;
75435;SDS011;64014;53.432;14.534;2023-06-26T00:05:00;9.70;;;6.00;;
75435;SDS011;64014;53.432;14.534;2023-06-26T00:07:28;9.90;;;5.78;;
75435;SDS011;64014;53.432;14.534;2023-06-26T00:09:54;11.27;;;6.15;;
75435;SDS011;64014;53.432;14.534;2023-06-26T00:12:21;13.70;;;6.03;;
75435;SDS011;64014;53.432;14.534;2023-06-26T00:14:47;10.40;;;6.20;;
75435;SDS011;64014;53.432;14.534;2023-06-26T00:17:13;9.45;;;5.65;;
75435;SDS011;64014;53.432;14.534;2023-06-26T00:19:39;7.85;;;5.45;;
75435;SDS011;64014;53.432;14.534;2023-06-26T00:22:06;9.52;;;5.97;;
75435;SDS011;64014;53.432;14.534;2023-06-26T00:24:32;12.80;;;6.80;;
75435;SDS011;64014;53.432;14.534;2023-06-26T00:26:58;12.82;;;6.47;;
75435;SDS011;64014;53.432;14.534;2023-06-26T00:29:24;11.02;;;5.65;;
75435;SDS011;64014;53.432;14.534;2023-06-26T00:31:51;7.68;;;5.53;;
75435;SDS011;64014;53.432;14.534;2023-06-26T00:34:17;10.07;;;6.43;;
75435;SDS011;64014;53.432;14.534;2023-06-26T00:36:44;11.98;;;6.78;;
75435;SDS011;64014;53.432;14.534;2023-06-26T00:39:11;10.02;;;6.10;;
75435;SDS011;64014;53.432;14.534;2023-06-26T00:41:37;9.23;;;5.63;;
75435;SDS011;64014;53.432;14.534;2023-06-26T00:44:04;9.60;;;6.78;;
75435;SDS011;64014;53.432;14.534;2023-06-26T00:46:31;9.73;;;5.30;;
75435;SDS011;64014;53.432;14.534;2023-06-26T00:49:02;10.02;;;5.75;;
75435;SDS011;64014;53.432;14.534;2023-06-26T00:51:29;7.95;;;5.43;;
75435;SDS011;64014;53.432;14.534;2023-06-26T00:53:57;9.38;;;5.82;;
75435;SDS011;64014;53.432;14.534;2023-06-26T00:56:23;10.88;;;5.57;;
75435;SDS011;64014;53.432;14.534;2023-06-26T00:58:49;13.63;;;6.47;;
75435;SDS011;64014;53.432;14.534;2023-06-26T01:01:16;9.98;;;6.13;;
75435;SDS011;64014;53.432;14.534;2023-06-26T01:03:45;9.73;;;6.93;;
75435;SDS011;64014;53.432;14.534;2023-06-26T01:06:13;8.80;;;6.30;;
75435;SDS011;64014;53.432;14.534;2023-06-26T01:08:41;8.75;;;5.72;;
75435;SDS011;64014;53.432;14.534;2023-06-26T01:11:08;11.95;;;5.80;;
75435;SDS011;64014;53.432;14.534;2023-06-26T01:13:34;13.10;;;5.80;;
75435;SDS011;64014;53.432;14.534;2023-06-26T01:16:01;9.40;;;6.03;;
75435;SDS011;64014;53.432;14.534;2023-06-26T01:18:27;8.57;;;6.05;;
75435;SDS011;64014;53.432;14.534;2023-06-26T01:20:55;9.88;;;6.38;;
75435;SDS011;64014;53.432;14.534;2023-06-26T01:23:35;10.18;;;5.32;;
75435;SDS011;64014;53.432;14.534;2023-06-26T01:26:09;12.32;;;5.53;;
75435;SDS011;64014;53.432;14.534;2023-06-26T01:28:40;9.38;;;6.10;;
75435;SDS011;64014;53.432;14.534;2023-06-26T01:31:07;8.93;;;6.25;;
75435;SDS011;64014;53.432;14.534;2023-06-26T01:33:34;9.25;;;4.65;;
75435;SDS011;64014;53.432;14.534;2023-06-26T01:36:00;9.02;;;6.70;;
75435;SDS011;64014;53.432;14.534;2023-06-26T01:38:27;9.48;;;7.25;;
75435;SDS011;64014;53.432;14.534;2023-06-26T01:40:53;11.38;;;6.63;;
75435;SDS011;64014;53.432;14.534;2023-06-26T01:46:09;8.13;;;6.13;;
75435;SDS011;64014;53.432;14.534;2023-06-26T01:48:40;8.93;;;6.10;;
75435;SDS011;64014;53.432;14.534;2023-06-26T01:51:08;7.78;;;5.35;;
75435;SDS011;64014;53.432;14.534;2023-06-26T01:53:36;11.05;;;6.10;;
75435;SDS011;64014;53.432;14.534;2023-06-26T01:56:07;9.15;;;6.10;;
75435;SDS011;64014;53.432;14.534;2023-06-26T01:58:34;7.53;;;6.03;;
75435;SDS011;64014;53.432;14.534;2023-06-26T02:01:01;11.32;;;5.93;;
75435;SDS011;64014;53.432;14.534;2023-06-26T02:03:27;8.73;;;5.85;;
75435;SDS011;64014;53.432;14.534;2023-06-26T02:05:55;7.18;;;5.38;;
75435;SDS011;64014;53.432;14.534;2023-06-26T02:08:21;10.65;;;5.88;;
75435;SDS011;64014;53.432;14.534;2023-06-26T02:10:48;9.85;;;6.18;;
75435;SDS011;64014;53.432;14.534;2023-06-26T02:13:14;11.75;;;6.30;;
75435;SDS011;64014;53.432;14.534;2023-06-26T02:15:40;8.05;;;4.90;;
75435;SDS011;64014;53.432;14.534;2023-06-26T02:18:07;11.98;;;5.75;;
75435;SDS011;64014;53.432;14.534;2023-06-26T02:20:33;8.77;;;5.82;;
75435;SDS011;64014;53.432;14.534;2023-06-26T02:22:59;8.82;;;5.78;;
75435;SDS011;64014;53.432;14.534;2023-06-26T02:25:25;10.95;;;6.60;;
75435;SDS011;64014;53.432;14.534;2023-06-26T02:27:51;9.65;;;6.28;;
75435;SDS011;64014;53.432;14.534;2023-06-26T02:30:18;11.32;;;5.13;;
75435;SDS011;64014;53.432;14.534;2023-06-26T02:32:45;9.80;;;5.60;;
75435;SDS011;64014;53.432;14.534;2023-06-26T02:35:11;10.88;;;5.55;;
75435;SDS011;64014;53.432;14.534;2023-06-26T02:37:37;11.00;;;5.95;;
75435;SDS011;64014;53.432;14.534;2023-06-26T02:40:03;7.60;;;5.22;;
75435;SDS011;64014;53.432;14.534;2023-06-26T02:42:31;7.60;;;5.97;;
75435;SDS011;64014;53.432;14.534;2023-06-26T02:44:57;9.43;;;6.25;;
75435;SDS011;64014;53.432;14.534;2023-06-26T02:47:23;9.43;;;6.90;;
75435;SDS011;64014;53.432;14.534;2023-06-26T02:49:49;11.00;;;7.20;;
75435;SDS011;64014;53.432;14.534;2023-06-26T02:52:16;7.47;;;5.45;;
75435;SDS011;64014;53.432;14.534;2023-06-26T02:54:42;10.00;;;6.28;;
75435;SDS011;64014;53.432;14.534;2023-06-26T02:57:08;8.60;;;6.07;;
75435;SDS011;64014;53.432;14.534;2023-06-26T02:59:34;9.95;;;6.47;;
75435;SDS011;64014;53.432;14.534;2023-06-26T03:02:01;10.77;;;7.45;;
75435;SDS011;64014;53.432;14.534;2023-06-26T03:04:27;8.48;;;6.93;;
75435;SDS011;64014;53.432;14.534;2023-06-26T03:06:53;8.07;;;6.47;;
75435;SDS011;64014;53.432;14.534;2023-06-26T03:09:19;11.68;;;6.78;;
75435;SDS011;64014;53.432;14.534;2023-06-26T03:11:46;10.00;;;5.88;;
75435;SDS011;64014;53.432;14.534;2023-06-26T03:14:12;9.70;;;6.78;;
75435;SDS011;64014;53.432;14.534;2023-06-26T03:16:38;8.80;;;6.85;;
75435;SDS011;64014;53.432;14.534;2023-06-26T03:19:04;9.00;;;6.18;;
75435;SDS011;64014;53.432;14.534;2023-06-26T03:21:31;12.88;;;6.88;;
75435;SDS011;64014;53.432;14.534;2023-06-26T03:23:58;9.18;;;6.38;;
75435;SDS011;64014;53.432;14.534;2023-06-26T03:26:24;11.50;;;7.25;;
75435;SDS011;64014;53.432;14.534;2023-06-26T03:31:18;8.38;;;6.53;;
75435;SDS011;64014;53.432;14.534;2023-06-26T03:33:45;10.43;;;7.13;;
75435;SDS011;64014;53.432;14.534;2023-06-26T03:36:11;11.07;;;7.05;;
75435;SDS011;64014;53.432;14.534;2023-06-26T03:38:38;8.23;;;5.88;;
75435;SDS011;64014;53.432;14.534;2023-06-26T03:41:04;8.48;;;5.20;;
75435;SDS011;64014;53.432;14.534;2023-06-26T03:43:30;9.52;;;6.80;;
75435;SDS011;64014;53.432;14.534;2023-06-26T03:45:56;9.38;;;6.68;;
75435;SDS011;64014;53.432;14.534;2023-06-26T03:48:23;8.20;;;6.72;;
75435;SDS011;64014;53.432;14.534;2023-06-26T03:50:49;10.18;;;6.82;;
75435;SDS011;64014;53.432;14.534;2023-06-26T03:53:15;8.52;;;6.82;;
75435;SDS011;64014;53.432;14.534;2023-06-26T03:55:41;10.52;;;7.70;;
75435;SDS011;64014;53.432;14.534;2023-06-26T03:58:08;11.40;;;7.20;;
75435;SDS011;64014;53.432;14.534;2023-06-26T04:00:34;10.07;;;6.53;;
75435;SDS011;64014;53.432;14.534;2023-06-26T04:03:00;8.90;;;6.38;;
75435;SDS011;64014;53.432;14.534;2023-06-26T04:05:27;10.05;;;7.28;;
75435;SDS011;64014;53.432;14.534;2023-06-26T04:07:54;9.55;;;6.70;;
75435;SDS011;64014;53.432;14.534;2023-06-26T04:10:20;11.15;;;7.43;;
75435;SDS011;64014;53.432;14.534;2023-06-26T04:12:47;10.00;;;7.47;;
75435;SDS011;64014;53.432;14.534;2023-06-26T04:15:13;9.45;;;7.50;;
75435;SDS011;64014;53.432;14.534;2023-06-26T04:17:39;9.52;;;6.93;;
75435;SDS011;64014;53.432;14.534;2023-06-26T04:20:06;12.80;;;8.00;;
75435;SDS011;64014;53.432;14.534;2023-06-26T04:22:33;10.73;;;8.18;;
75435;SDS011;64014;53.432;14.534;2023-06-26T04:25:03;12.10;;;5.80;;
75435;SDS011;64014;53.432;14.534;2023-06-26T04:27:29;9.32;;;6.63;;
75435;SDS011;64014;53.432;14.534;2023-06-26T04:29:55;11.10;;;7.28;;
75435;SDS011;64014;53.432;14.534;2023-06-26T04:32:22;15.32;;;8.23;;
75435;SDS011;64014;53.432;14.534;2023-06-26T04:34:48;10.73;;;7.97;;
75435;SDS011;64014;53.432;14.534;2023-06-26T04:37:15;12.45;;;5.45;;
75435;SDS011;64014;53.432;14.534;2023-06-26T04:39:42;11.90;;;7.47;;
75435;SDS011;64014;53.432;14.534;2023-06-26T04:42:08;10.02;;;6.68;;
75435;SDS011;64014;53.432;14.534;2023-06-26T04:44:37;9.80;;;7.07;;
75435;SDS011;64014;53.432;14.534;2023-06-26T04:47:07;11.95;;;5.68;;
75435;SDS011;64014;53.432;14.534;2023-06-26T04:49:33;9.75;;;6.88;;
75435;SDS011;64014;53.432;14.534;2023-06-26T04:52:00;10.98;;;5.55;;
75435;SDS011;64014;53.432;14.534;2023-06-26T04:54:26;7.85;;;5.30;;
75435;SDS011;64014;53.432;14.534;2023-06-26T04:56:55;8.82;;;5.80;;
75435;SDS011;64014;53.432;14.534;2023-06-26T04:59:21;8.00;;;6.97;;
75435;SDS011;64014;53.432;14.534;2023-06-26T05:01:48;10.15;;;6.82;;
75435;SDS011;64014;53.432;14.534;2023-06-26T05:04:14;8.82;;;7.22;;
75435;SDS011;64014;53.432;14.534;2023-06-26T05:06:41;9.63;;;6.50;;
75435;SDS011;64014;53.432;14.534;2023-06-26T05:09:07;8.80;;;7.47;;
75435;SDS011;64014;53.432;14.534;2023-06-26T05:11:33;8.25;;;6.63;;
75435;SDS011;64014;53.432;14.534;2023-06-26T05:13:59;12.35;;;7.28;;
75435;SDS011;64014;53.432;14.534;2023-06-26T05:16:26;7.18;;;5.22;;
75435;SDS011;64014;53.432;14.534;2023-06-26T05:18:52;8.50;;;5.75;;
75435;SDS011;64014;53.432;14.534;2023-06-26T05:21:19;8.88;;;6.00;;
75435;SDS011;64014;53.432;14.534;2023-06-26T05:23:46;12.20;;;6.78;;
75435;SDS011;64014;53.432;14.534;2023-06-26T05:26:12;10.10;;;5.00;;
75435;SDS011;64014;53.432;14.534;2023-06-26T05:28:39;9.45;;;5.57;;
75435;SDS011;64014;53.432;14.534;2023-06-26T05:31:05;7.68;;;4.90;;
75435;SDS011;64014;53.432;14.534;2023-06-26T05:33:31;8.35;;;4.40;;
75435;SDS011;64014;53.432;14.534;2023-06-26T05:36:00;7.85;;;5.90;;
75435;SDS011;64014;53.432;14.534;2023-06-26T05:40:54;10.43;;;5.97;;
75435;SDS011;64014;53.432;14.534;2023-06-26T05:43:20;8.68;;;5.10;;
75435;SDS011;64014;53.432;14.534;2023-06-26T05:45:48;8.30;;;5.63;;
75435;SDS011;64014;53.432;14.534;2023-06-26T05:48:14;8.35;;;4.28;;
75435;SDS011;64014;53.432;14.534;2023-06-26T05:50:41;8.15;;;4.30;;
75435;SDS011;64014;53.432;14.534;2023-06-26T05:53:08;8.05;;;4.50;;
75435;SDS011;64014;53.432;14.534;2023-06-26T05:55:35;10.18;;;4.97;;
75435;SDS011;64014;53.432;14.534;2023-06-26T05:58:01;7.95;;;4.97;;
75435;SDS011;64014;53.432;14.534;2023-06-26T06:00:28;7.22;;;4.30;;
75435;SDS011;64014;53.432;14.534;2023-06-26T06:02:54;6.68;;;4.78;;
75435;SDS011;64014;53.432;14.534;2023-06-26T06:05:21;8.48;;;4.60;;
75435;SDS011;64014;53.432;14.534;2023-06-26T06:07:48;8.23;;;6.05;;
75435;SDS011;64014;53.432;14.534;2023-06-26T06:10:14;10.85;;;5.60;;
75435;SDS011;64014;53.432;14.534;2023-06-26T06:12:40;7.47;;;4.40;;
75435;SDS011;64014;53.432;14.534;2023-06-26T06:15:07;9.95;;;4.60;;
75435;SDS011;64014;53.432;14.534;2023-06-26T06:17:34;8.88;;;4.53;;
75435;SDS011;64014;53.432;14.534;2023-06-26T06:20:00;8.95;;;4.38;;
75435;SDS011;64014;53.432;14.534;2023-06-26T06:22:26;8.70;;;4.57;;
75435;SDS011;64014;53.432;14.534;2023-06-26T06:24:52;7.60;;;4.55;;
75435;SDS011;64014;53.432;14.534;2023-06-26T06:27:18;8.05;;;4.70;;
75435;SDS011;64014;53.432;14.534;2023-06-26T06:29:45;6.70;;;4.85;;
75435;SDS011;64014;53.432;14.534;2023-06-26T06:32:11;7.65;;;4.93;;
75435;SDS011;64014;53.432;14.534;2023-06-26T06:34:37;6.32;;;5.07;;
75435;SDS011;64014;53.432;14.534;2023-06-26T06:37:03;8.27;;;4.93;;
75435;SDS011;64014;53.432;14.534;2023-06-26T06:39:30;9.30;;;4.47;;
75435;SDS011;64014;53.432;14.534;2023-06-26T06:41:56;11.27;;;4.30;;
75435;SDS011;64014;53.432;14.534;2023-06-26T06:44:22;8.35;;;5.15;;
75435;SDS011;64014;53.432;14.534;2023-06-26T06:46:48;9.48;;;4.95;;
75435;SDS011;64014;53.432;14.534;2023-06-26T06:49:14;7.55;;;4.28;;
75435;SDS011;64014;53.432;14.534;2023-06-26T06:51:41;8.30;;;4.93;;
75435;SDS011;64014;53.432;14.534;2023-06-26T06:54:07;8.02;;;4.43;;
75435;SDS011;64014;53.432;14.534;2023-06-26T06:56:33;12.95;;;9.70;;
75435;SDS011;64014;53.432;14.534;2023-06-26T06:59:00;9.45;;;4.63;;
75435;SDS011;64014;53.432;14.534;2023-06-26T07:01:26;9.80;;;4.93;;
75435;SDS011;64014;53.432;14.534;2023-06-26T07:03:52;8.70;;;4.60;;
75435;SDS011;64014;53.432;14.534;2023-06-26T07:06:18;7.85;;;4.70;;
75435;SDS011;64014;53.432;14.534;2023-06-26T07:08:45;10.23;;;4.53;;
75435;SDS011;64014;53.432;14.534;2023-06-26T07:11:11;14.65;;;5.38;;
75435;SDS011;64014;53.432;14.534;2023-06-26T07:13:37;6.70;;;4.93;;
75435;SDS011;64014;53.432;14.534;2023-06-26T07:16:03;8.85;;;4.75;;
75435;SDS011;64014;53.432;14.534;2023-06-26T07:18:30;8.27;;;3.95;;
75435;SDS011;64014;53.432;14.534;2023-06-26T07:20:56;7.22;;;5.38;;
75435;SDS011;64014;53.432;14.534;2023-06-26T07:23:23;9.50;;;5.25;;
75435;SDS011;64014;53.432;14.534;2023-06-26T07:25:49;17.00;;;5.82;;
75435;SDS011;64014;53.432;14.534;2023-06-26T07:28:15;8.52;;;3.97;;
75435;SDS011;64014;53.432;14.534;2023-06-26T07:30:41;7.30;;;4.60;;
75435;SDS011;64014;53.432;14.534;2023-06-26T07:33:07;7.72;;;4.22;;
75435;SDS011;64014;53.432;14.534;2023-06-26T07:35:34;10.13;;;4.15;;
75435;SDS011;64014;53.432;14.534;2023-06-26T07:38:00;8.95;;;4.07;;
75435;SDS011;64014;53.432;14.534;2023-06-26T07:40:26;6.25;;;4.03;;
75435;SDS011;64014;53.432;14.534;2023-06-26T07:42:53;7.00;;;5.07;;
75435;SDS011;64014;53.432;14.534;2023-06-26T07:45:19;6.85;;;4.57;;
75435;SDS011;64014;53.432;14.534;2023-06-26T07:47:45;7.45;;;4.95;;
75435;SDS011;64014;53.432;14.534;2023-06-26T07:50:11;5.97;;;4.07;;
75435;SDS011;64014;53.432;14.534;2023-06-26T07:52:40;8.98;;;4.53;;
75435;SDS011;64014;53.432;14.534;2023-06-26T07:55:07;6.68;;;3.47;;
75435;SDS011;64014;53.432;14.534;2023-06-26T07:57:33;7.15;;;5.22;;
75435;SDS011;64014;53.432;14.534;2023-06-26T07:59:59;7.78;;;3.67;;
75435;SDS011;64014;53.432;14.534;2023-06-26T08:02:25;10.07;;;4.95;;
75435;SDS011;64014;53.432;14.534;2023-06-26T08:04:51;7.25;;;5.93;;
75435;SDS011;64014;53.432;14.534;2023-06-26T08:07:17;6.72;;;4.40;;
75435;SDS011;64014;53.432;14.534;2023-06-26T08:09:44;6.82;;;4.22;;
75435;SDS011;64014;53.432;14.534;2023-06-26T08:12:10;6.93;;;4.43;;
75435;SDS011;64014;53.432;14.534;2023-06-26T08:14:36;5.65;;;4.22;;
75435;SDS011;64014;53.432;14.534;2023-06-26T08:17:02;6.90;;;4.32;;
75435;SDS011;64014;53.432;14.534;2023-06-26T08:19:28;6.25;;;4.80;;
75435;SDS011;64014;53.432;14.534;2023-06-26T08:21:54;10.77;;;4.82;;
75435;SDS011;64014;53.432;14.534;2023-06-26T08:24:20;8.20;;;4.57;;
75435;SDS011;64014;53.432;14.534;2023-06-26T08:26:47;6.13;;;4.40;;
75435;SDS011;64014;53.432;14.534;2023-06-26T08:29:13;7.95;;;4.00;;
75435;SDS011;64014;53.432;14.534;2023-06-26T08:31:40;6.85;;;4.13;;
75435;SDS011;64014;53.432;14.534;2023-06-26T08:34:06;6.55;;;4.35;;
75435;SDS011;64014;53.432;14.534;2023-06-26T08:36:33;9.70;;;5.10;;
75435;SDS011;64014;53.432;14.534;2023-06-26T08:38:59;6.80;;;5.25;;
75435;SDS011;64014;53.432;14.534;2023-06-26T08:41:25;7.38;;;4.38;;
75435;SDS011;64014;53.432;14.534;2023-06-26T08:43:51;6.50;;;3.80;;
75435;SDS011;64014;53.432;14.534;2023-06-26T08:46:18;6.45;;;4.20;;
75435;SDS011;64014;53.432;14.534;2023-06-26T08:51:33;7.07;;;4.13;;
75435;SDS011;64014;53.432;14.534;2023-06-26T08:54:04;6.95;;;4.80;;
75435;SDS011;64014;53.432;14.534;2023-06-26T08:56:34;9.90;;;5.43;;
75435;SDS011;64014;53.432;14.534;2023-06-26T08:59:01;7.85;;;5.22;;
75435;SDS011;64014;53.432;14.534;2023-06-26T09:01:28;8.88;;;5.93;;
75435;SDS011;64014;53.432;14.534;2023-06-26T09:03:54;6.55;;;4.57;;
75435;SDS011;64014;53.432;14.534;2023-06-26T09:06:20;7.18;;;4.63;;
75435;SDS011;64014;53.432;14.534;2023-06-26T09:08:46;11.52;;;4.50;;
75435;SDS011;64014;53.432;14.534;2023-06-26T09:11:13;7.30;;;5.18;;
75435;SDS011;64014;53.432;14.534;2023-06-26T09:13:39;7.55;;;4.40;;
75435;SDS011;64014;53.432;14.534;2023-06-26T09:16:06;7.50;;;4.47;;
75435;SDS011;64014;53.432;14.534;2023-06-26T09:18:35;8.50;;;4.53;;
75435;SDS011;64014;53.432;14.534;2023-06-26T09:21:08;7.05;;;5.03;;
75435;SDS011;64014;53.432;14.534;2023-06-26T09:23:36;7.22;;;5.60;;
75435;SDS011;64014;53.432;14.534;2023-06-26T09:26:03;9.30;;;4.72;;
75435;SDS011;64014;53.432;14.534;2023-06-26T09:28:29;7.95;;;4.75;;
75435;SDS011;64014;53.432;14.534;2023-06-26T09:30:59;11.20;;;4.72;;
75435;SDS011;64014;53.432;14.534;2023-06-26T09:33:26;7.63;;;5.32;;
75435;SDS011;64014;53.432;14.534;2023-06-26T09:35:52;7.93;;;4.40;;
75435;SDS011;64014;53.432;14.534;2023-06-26T09:38:18;5.35;;;3.85;;
75435;SDS011;64014;53.432;14.534;2023-06-26T09:40:46;7.30;;;4.78;;
75435;SDS011;64014;53.432;14.534;2023-06-26T09:43:13;6.65;;;5.22;;
75435;SDS011;64014;53.432;14.534;2023-06-26T09:45:39;8.43;;;5.35;;
75435;SDS011;64014;53.432;14.534;2023-06-26T09:48:06;8.05;;;4.30;;
75435;SDS011;64014;53.432;14.534;2023-06-26T09:50:34;6.38;;;3.70;;
75435;SDS011;64014;53.432;14.534;2023-06-26T09:53:08;4.85;;;3.17;;
75435;SDS011;64014;53.432;14.534;2023-06-26T09:55:43;6.95;;;4.00;;
75435;SDS011;64014;53.432;14.534;2023-06-26T09:58:13;5.35;;;3.50;;
75435;SDS011;64014;53.432;14.534;2023-06-26T10:00:40;5.15;;;3.60;;
75435;SDS011;64014;53.432;14.534;2023-06-26T10:03:07;5.28;;;3.55;;
75435;SDS011;64014;53.432;14.534;2023-06-26T10:05:34;5.35;;;3.78;;
75435;SDS011;64014;53.432;14.534;2023-06-26T10:08:00;6.20;;;4.07;;
75435;SDS011;64014;53.432;14.534;2023-06-26T10:10:27;5.30;;;3.40;;
75435;SDS011;64014;53.432;14.534;2023-06-26T10:12:54;6.00;;;3.53;;
75435;SDS011;64014;53.432;14.534;2023-06-26T10:15:22;5.43;;;3.72;;
75435;SDS011;64014;53.432;14.534;2023-06-26T10:17:49;5.95;;;3.40;;
75435;SDS011;64014;53.432;14.534;2023-06-26T10:20:15;4.95;;;3.30;;
75435;SDS011;64014;53.432;14.534;2023-06-26T10:22:45;6.03;;;3.97;;
75435;SDS011;64014;53.432;14.534;2023-06-26T10:25:12;8.13;;;3.75;;
75435;SDS011;64014;53.432;14.534;2023-06-26T10:27:45;5.93;;;3.88;;
75435;SDS011;64014;53.432;14.534;2023-06-26T10:30:15;7.20;;;3.83;;
75435;SDS011;64014;53.432;14.534;2023-06-26T10:32:42;5.28;;;4.40;;
75435;SDS011;64014;53.432;14.534;2023-06-26T10:35:08;5.93;;;3.58;;
75435;SDS011;64014;53.432;14.534;2023-06-26T10:40:11;5.50;;;3.70;;
75435;SDS011;64014;53.432;14.534;2023-06-26T10:42:38;5.38;;;3.67;;
75435;SDS011;64014;53.432;14.534;2023-06-26T10:47:40;5.68;;;4.10;;
75435;SDS011;64014;53.432;14.534;2023-06-26T10:50:16;5.28;;;4.30;;
75435;SDS011;64014;53.432;14.534;2023-06-26T10:52:45;5.32;;;4.03;;
75435;SDS011;64014;53.432;14.534;2023-06-26T10:55:13;9.90;;;3.75;;
75435;SDS011;64014;53.432;14.534;2023-06-26T10:57:40;5.47;;;4.13;;
75435;SDS011;64014;53.432;14.534;2023-06-26T11:00:11;5.22;;;3.50;;
75435;SDS011;64014;53.432;14.534;2023-06-26T11:02:48;7.10;;;4.07;;
75435;SDS011;64014;53.432;14.534;2023-06-26T11:05:28;6.80;;;4.30;;
75435;SDS011;64014;53.432;14.534;2023-06-26T11:10:51;5.53;;;3.33;;
75435;SDS011;64014;53.432;14.534;2023-06-26T11:13:18;6.03;;;3.20;;
75435;SDS011;64014;53.432;14.534;2023-06-26T11:15:46;5.65;;;4.28;;
75435;SDS011;64014;53.432;14.534;2023-06-26T11:18:12;5.80;;;4.20;;
75435;SDS011;64014;53.432;14.534;2023-06-26T11:20:39;6.15;;;3.38;;
75435;SDS011;64014;53.432;14.534;2023-06-26T11:23:06;6.07;;;4.65;;
75435;SDS011;64014;53.432;14.534;2023-06-26T11:25:34;7.32;;;4.10;;
75435;SDS011;64014;53.432;14.534;2023-06-26T11:28:00;5.68;;;4.15;;
75435;SDS011;64014;53.432;14.534;2023-06-26T11:30:27;5.50;;;4.00;;
75435;SDS011;64014;53.432;14.534;2023-06-26T11:32:53;5.68;;;3.47;;
75435;SDS011;64014;53.432;14.534;2023-06-26T11:35:28;6.13;;;3.67;;
75435;SDS011;64014;53.432;14.534;2023-06-26T11:37:57;4.75;;;3.33;;
75435;SDS011;64014;53.432;14.534;2023-06-26T11:40:25;5.13;;;3.53;;
75435;SDS011;64014;53.432;14.534;2023-06-26T11:42:59;5.03;;;3.47;;
75435;SDS011;64014;53.432;14.534;2023-06-26T11:45:30;4.65;;;3.17;;
75435;SDS011;64014;53.432;14.534;2023-06-26T11:47:57;6.18;;;4.20;;
75435;SDS011;64014;53.432;14.534;2023-06-26T11:50:23;12.25;;;8.43;;
75435;SDS011;64014;53.432;14.534;2023-06-26T11:53:07;7.00;;;4.78;;
75435;SDS011;64014;53.432;14.534;2023-06-26T11:55:40;6.78;;;4.00;;
75435;SDS011;64014;53.432;14.534;2023-06-26T11:58:08;6.80;;;4.35;;
75435;SDS011;64014;53.432;14.534;2023-06-26T12:00:34;7.53;;;3.78;;
75435;SDS011;64014;53.432;14.534;2023-06-26T12:03:00;5.93;;;4.07;;
75435;SDS011;64014;53.432;14.534;2023-06-26T12:05:28;6.35;;;3.83;;
75435;SDS011;64014;53.432;14.534;2023-06-26T12:07:54;6.35;;;3.83;;
75435;SDS011;64014;53.432;14.534;2023-06-26T12:10:22;5.78;;;4.40;;
75435;SDS011;64014;53.432;14.534;2023-06-26T12:12:48;8.98;;;4.90;;
75435;SDS011;64014;53.432;14.534;2023-06-26T12:15:15;6.68;;;4.60;;
75435;SDS011;64014;53.432;14.534;2023-06-26T12:17:41;7.18;;;3.67;;
75435;SDS011;64014;53.432;14.534;2023-06-26T12:20:29;5.10;;;4.00;;
75435;SDS011;64014;53.432;14.534;2023-06-26T12:22:57;5.80;;;4.60;;
75435;SDS011;64014;53.432;14.534;2023-06-26T12:25:23;6.20;;;4.05;;
75435;SDS011;64014;53.432;14.534;2023-06-26T12:27:50;6.97;;;4.18;;
75435;SDS011;64014;53.432;14.534;2023-06-26T12:30:16;6.20;;;3.88;;
75435;SDS011;64014;53.432;14.534;2023-06-26T12:32:45;7.82;;;4.68;;
75435;SDS011;64014;53.432;14.534;2023-06-26T12:35:11;6.38;;;4.15;;
75435;SDS011;64014;53.432;14.534;2023-06-26T12:37:38;5.88;;;4.20;;
75435;SDS011;64014;53.432;14.534;2023-06-26T12:40:05;7.47;;;4.40;;
75435;SDS011;64014;53.432;14.534;2023-06-26T12:42:42;6.68;;;4.20;;
75435;SDS011;64014;53.432;14.534;2023-06-26T12:45:12;5.32;;;3.83;;
75435;SDS011;64014;53.432;14.534;2023-06-26T12:47:39;5.28;;;4.43;;
75435;SDS011;64014;53.432;14.534;2023-06-26T12:50:06;4.28;;;3.60;;
75435;SDS011;64014;53.432;14.534;2023-06-26T12:52:32;4.68;;;3.22;;
75435;SDS011;64014;53.432;14.534;2023-06-26T12:54:58;5.85;;;3.95;;
75435;SDS011;64014;53.432;14.534;2023-06-26T12:57:25;5.32;;;3.83;;
75435;SDS011;64014;53.432;14.534;2023-06-26T12:59:51;7.07;;;4.88;;
75435;SDS011;64014;53.432;14.534;2023-06-26T13:02:18;4.75;;;4.13;;
75435;SDS011;64014;53.432;14.534;2023-06-26T13:04:44;4.70;;;3.85;;
75435;SDS011;64014;53.432;14.534;2023-06-26T13:07:11;6.63;;;3.67;;
75435;SDS011;64014;53.432;14.534;2023-06-26T13:09:37;5.07;;;3.88;;
75435;SDS011;64014;53.432;14.534;2023-06-26T13:12:05;4.72;;;3.75;;
75435;SDS011;64014;53.432;14.534;2023-06-26T13:14:31;4.28;;;3.50;;
75435;SDS011;64014;53.432;14.534;2023-06-26T13:16:58;7.15;;;3.70;;
75435;SDS011;64014;53.432;14.534;2023-06-26T13:19:24;5.93;;;4.28;;
75435;SDS011;64014;53.432;14.534;2023-06-26T13:21:50;5.55;;;3.75;;
75435;SDS011;64014;53.432;14.534;2023-06-26T13:24:16;6.60;;;3.45;;
75435;SDS011;64014;53.432;14.534;2023-06-26T13:26:42;5.40;;;3.88;;
75435;SDS011;64014;53.432;14.534;2023-06-26T13:29:08;5.53;;;4.15;;
75435;SDS011;64014;53.432;14.534;2023-06-26T13:31:35;4.47;;;4.07;;
75435;SDS011;64014;53.432;14.534;2023-06-26T13:34:02;6.88;;;3.33;;
75435;SDS011;64014;53.432;14.534;2023-06-26T13:36:31;5.45;;;3.50;;
75435;SDS011;64014;53.432;14.534;2023-06-26T13:39:00;6.35;;;4.18;;
75435;SDS011;64014;53.432;14.534;2023-06-26T13:41:27;6.07;;;4.18;;
75435;SDS011;64014;53.432;14.534;2023-06-26T13:43:53;5.05;;;3.20;;
75435;SDS011;64014;53.432;14.534;2023-06-26T13:46:20;6.18;;;3.70;;
75435;SDS011;64014;53.432;14.534;2023-06-26T13:48:46;5.80;;;4.40;;
75435;SDS011;64014;53.432;14.534;2023-06-26T13:51:12;5.07;;;4.25;;
75435;SDS011;64014;53.432;14.534;2023-06-26T13:53:39;6.82;;;3.38;;
75435;SDS011;64014;53.432;14.534;2023-06-26T13:56:05;9.50;;;4.35;;
75435;SDS011;64014;53.432;14.534;2023-06-26T13:58:34;5.57;;;4.07;;
75435;SDS011;64014;53.432;14.534;2023-06-26T14:01:01;4.45;;;3.88;;
75435;SDS011;64014;53.432;14.534;2023-06-26T14:03:28;5.82;;;4.10;;
75435;SDS011;64014;53.432;14.534;2023-06-26T14:05:54;5.60;;;4.50;;
75435;SDS011;64014;53.432;14.534;2023-06-26T14:08:20;4.65;;;3.40;;
75435;SDS011;64014;53.432;14.534;2023-06-26T14:10:47;6.32;;;4.28;;
75435;SDS011;64014;53.432;14.534;2023-06-26T14:13:15;6.05;;;3.95;;
75435;SDS011;64014;53.432;14.534;2023-06-26T14:15:41;7.32;;;4.55;;
75435;SDS011;64014;53.432;14.534;2023-06-26T14:18:10;6.07;;;3.78;;
75435;SDS011;64014;53.432;14.534;2023-06-26T14:20:39;6.00;;;3.83;;
75435;SDS011;64014;53.432;14.534;2023-06-26T14:23:05;5.00;;;3.78;;
75435;SDS011;64014;53.432;14.534;2023-06-26T14:25:32;7.72;;;4.38;;
75435;SDS011;64014;53.432;14.534;2023-06-26T14:27:58;6.25;;;4.07;;
75435;SDS011;64014;53.432;14.534;2023-06-26T14:30:24;6.70;;;3.70;;
75435;SDS011;64014;53.432;14.534;2023-06-26T14:32:50;4.88;;;4.00;;
75435;SDS011;64014;53.432;14.534;2023-06-26T14:35:17;5.95;;;3.67;;
75435;SDS011;64014;53.432;14.534;2023-06-26T14:37:43;6.68;;;4.35;;
75435;SDS011;64014;53.432;14.534;2023-06-26T14:40:09;5.88;;;4.15;;
75435;SDS011;64014;53.432;14.534;2023-06-26T14:42:36;5.75;;;3.60;;
75435;SDS011;64014;53.432;14.534;2023-06-26T14:45:02;6.40;;;4.40;;
75435;SDS011;64014;53.432;14.534;2023-06-26T14:47:28;10.32;;;4.60;;